Aeroporto :
LOGIN :

Iscrizione | Disclaimer

   EN    FR    IT 

 










Sommario :    VFR   VFR Marginale   IFR   IFR Intensivo   IFR Molto Intensivo
Visibilità : 
Base nubi : 
>= 8 km
>= 3000ft
5 / 8 km
1000 / 3000 ft
1500m / 5 km
500 / 1000 ft
800 / 1500m
200 / 500 ft
< 800m
< 200 ft
Simboli :   Temporali  Nebbia  Neve Forte  Precipitazioni Forti  Vento > 20 kt
SIGMETs :   Varie  Temporali  Ghiacco  Turbolenza  Onda orograficha  Ceneri Vulcaniche






- Altitudine del aeroporto : 2054 ft
- Codice IATA : RRS


ENRO - Røros

ULTIMO METAR :
  • 171250Z 15011G22KT 120V180 9999 BKN033 03/M02 Q0967

METARs OBSOLETI :
  • 171220Z 15012G23KT 9999 BKN037 04/M02 Q0967
  • 171150Z 18012KT 140V220 9999 SCT032 04/M03 Q0967
  • 171120Z 16011KT 130V200 9999 BKN032 03/M02 Q0967
  • 171050Z 18014KT 150V210 9999 FEW032 02/M03 Q0967
  • 171020Z 17011KT 130V220 9999 BKN032 03/M02 Q0967

TAF TAF ENRO
Valido dal 17 a 12 ore il 17 a 20 ore UTC


171100Z 1712/1720 16012KT 9999 FEW020 BKN050
TEMPO 1712/1715 22018G28KT
TEMPO 1715/1720 22025G40KT
TEMPO 1717/1720 SHSN BKN015CB



MetMap, La meteo Aeronautica in un colpo d'occhio ! - Copyright ORBIFLY Dicembre 2007 - Disclaimer

ORBIFLY MET'MAP TEAM :

Programmazione e sviluppo : Alexandra Zaïnal
Concezione : Baudouin d'Aumeries
Aiuto per la programmazione : Marc-Olivier Méhu
Supporto tecnico e logistico : Manuel Goepfert
Aiuto per la traduzione : Arnaldo La Scala

Contatto : metmap@orbifly.com




FONTI E CREDITI :

   NOAA